sensor_id;sensor_type;location;lat;lon;timestamp;P1;durP1;ratioP1;P2;durP2;ratioP2
11211;SDS011;5663;50.864;12.096;2023-03-20T00:20:28;4.63;;;3.87;;
11211;SDS011;5663;50.864;12.096;2023-03-20T00:22:56;6.23;;;4.23;;
11211;SDS011;5663;50.864;12.096;2023-03-20T00:25:23;7.90;;;4.17;;
11211;SDS011;5663;50.864;12.096;2023-03-20T00:27:53;7.60;;;4.70;;
11211;SDS011;5663;50.864;12.096;2023-03-20T00:30:23;5.93;;;4.87;;
11211;SDS011;5663;50.864;12.096;2023-03-20T00:32:53;5.30;;;4.23;;
11211;SDS011;5663;50.864;12.096;2023-03-20T00:35:24;6.87;;;4.57;;
11211;SDS011;5663;50.864;12.096;2023-03-20T00:37:54;6.23;;;4.63;;
11211;SDS011;5663;50.864;12.096;2023-03-20T00:40:23;6.13;;;4.40;;
11211;SDS011;5663;50.864;12.096;2023-03-20T00:42:57;5.20;;;3.90;;
11211;SDS011;5663;50.864;12.096;2023-03-20T00:45:25;4.77;;;4.20;;
11211;SDS011;5663;50.864;12.096;2023-03-20T00:47:54;8.57;;;4.80;;
11211;SDS011;5663;50.864;12.096;2023-03-20T00:50:25;6.50;;;4.40;;
11211;SDS011;5663;50.864;12.096;2023-03-20T00:52:55;6.77;;;4.23;;
11211;SDS011;5663;50.864;12.096;2023-03-20T00:55:23;4.37;;;3.97;;
11211;SDS011;5663;50.864;12.096;2023-03-20T00:57:53;9.90;;;4.30;;
11211;SDS011;5663;50.864;12.096;2023-03-20T01:00:25;5.23;;;3.70;;
11211;SDS011;5663;50.864;12.096;2023-03-20T01:02:57;5.87;;;3.80;;
11211;SDS011;5663;50.864;12.096;2023-03-20T01:05:26;6.40;;;4.10;;
11211;SDS011;5663;50.864;12.096;2023-03-20T01:07:54;5.43;;;4.27;;
11211;SDS011;5663;50.864;12.096;2023-03-20T01:10:23;7.13;;;4.00;;
11211;SDS011;5663;50.864;12.096;2023-03-20T01:12:57;6.17;;;4.30;;
11211;SDS011;5663;50.864;12.096;2023-03-20T01:15:29;6.83;;;4.47;;
11211;SDS011;5663;50.864;12.096;2023-03-20T01:17:59;4.97;;;3.57;;
11211;SDS011;5663;50.864;12.096;2023-03-20T01:20:28;4.53;;;4.00;;
11211;SDS011;5663;50.864;12.096;2023-03-20T01:22:56;5.50;;;3.50;;
11211;SDS011;5663;50.864;12.096;2023-03-20T01:25:24;6.53;;;3.60;;
11211;SDS011;5663;50.864;12.096;2023-03-20T01:27:53;7.83;;;3.77;;
11211;SDS011;5663;50.864;12.096;2023-03-20T01:30:23;9.13;;;4.10;;
11211;SDS011;5663;50.864;12.096;2023-03-20T01:32:53;5.43;;;3.30;;
11211;SDS011;5663;50.864;12.096;2023-03-20T01:35:21;6.07;;;3.93;;
11211;SDS011;5663;50.864;12.096;2023-03-20T01:37:52;6.27;;;3.33;;
11211;SDS011;5663;50.864;12.096;2023-03-20T01:40:24;5.33;;;3.33;;
11211;SDS011;5663;50.864;12.096;2023-03-20T01:42:58;6.63;;;3.30;;
11211;SDS011;5663;50.864;12.096;2023-03-20T01:45:28;7.70;;;3.63;;
11211;SDS011;5663;50.864;12.096;2023-03-20T01:48:01;3.93;;;3.30;;
11211;SDS011;5663;50.864;12.096;2023-03-20T01:50:39;6.40;;;3.67;;
11211;SDS011;5663;50.864;12.096;2023-03-20T01:53:08;4.03;;;3.63;;
11211;SDS011;5663;50.864;12.096;2023-03-20T01:55:40;4.70;;;3.30;;
11211;SDS011;5663;50.864;12.096;2023-03-20T01:58:10;6.10;;;3.47;;
11211;SDS011;5663;50.864;12.096;2023-03-20T02:00:42;4.60;;;3.73;;
11211;SDS011;5663;50.864;12.096;2023-03-20T02:03:09;4.37;;;3.27;;
11211;SDS011;5663;50.864;12.096;2023-03-20T02:05:37;6.17;;;3.70;;
11211;SDS011;5663;50.864;12.096;2023-03-20T02:08:09;5.30;;;3.73;;
11211;SDS011;5663;50.864;12.096;2023-03-20T02:10:43;4.37;;;3.40;;
11211;SDS011;5663;50.864;12.096;2023-03-20T02:13:12;6.73;;;4.00;;
11211;SDS011;5663;50.864;12.096;2023-03-20T02:15:54;5.00;;;3.57;;
11211;SDS011;5663;50.864;12.096;2023-03-20T02:18:23;5.53;;;3.47;;
11211;SDS011;5663;50.864;12.096;2023-03-20T02:20:58;7.63;;;3.83;;
11211;SDS011;5663;50.864;12.096;2023-03-20T02:24:04;3.47;;;3.10;;
11211;SDS011;5663;50.864;12.096;2023-03-20T02:26:59;9.00;;;4.00;;
11211;SDS011;5663;50.864;12.096;2023-03-20T02:32:48;6.10;;;3.70;;
11211;SDS011;5663;50.864;12.096;2023-03-20T02:35:54;6.03;;;3.70;;
11211;SDS011;5663;50.864;12.096;2023-03-20T02:41:51;4.10;;;3.43;;
11211;SDS011;5663;50.864;12.096;2023-03-20T02:44:28;8.07;;;4.03;;
11211;SDS011;5663;50.864;12.096;2023-03-20T02:47:02;5.27;;;3.93;;
11211;SDS011;5663;50.864;12.096;2023-03-20T02:49:41;4.10;;;3.40;;
11211;SDS011;5663;50.864;12.096;2023-03-20T02:52:20;6.87;;;4.13;;
11211;SDS011;5663;50.864;12.096;2023-03-20T02:54:58;5.30;;;3.80;;
11211;SDS011;5663;50.864;12.096;2023-03-20T02:57:36;4.80;;;3.90;;
11211;SDS011;5663;50.864;12.096;2023-03-20T03:00:10;6.70;;;3.90;;
11211;SDS011;5663;50.864;12.096;2023-03-20T03:02:42;3.10;;;2.77;;
11211;SDS011;5663;50.864;12.096;2023-03-20T03:05:18;4.77;;;3.90;;
11211;SDS011;5663;50.864;12.096;2023-03-20T03:07:49;8.27;;;3.80;;
11211;SDS011;5663;50.864;12.096;2023-03-20T03:10:22;4.23;;;3.60;;
11211;SDS011;5663;50.864;12.096;2023-03-20T03:12:53;6.27;;;3.90;;
11211;SDS011;5663;50.864;12.096;2023-03-20T03:15:25;6.83;;;3.53;;
11211;SDS011;5663;50.864;12.096;2023-03-20T03:17:55;5.60;;;3.50;;
11211;SDS011;5663;50.864;12.096;2023-03-20T06:19:25;7.83;;;4.60;;
11211;SDS011;5663;50.864;12.096;2023-03-20T06:21:52;7.43;;;5.23;;
11211;SDS011;5663;50.864;12.096;2023-03-20T06:24:20;6.73;;;4.90;;
11211;SDS011;5663;50.864;12.096;2023-03-20T06:26:48;8.93;;;5.83;;
11211;SDS011;5663;50.864;12.096;2023-03-20T06:29:15;7.17;;;5.60;;
11211;SDS011;5663;50.864;12.096;2023-03-20T06:31:43;5.17;;;4.53;;
11211;SDS011;5663;50.864;12.096;2023-03-20T06:34:11;5.17;;;4.67;;
11211;SDS011;5663;50.864;12.096;2023-03-20T06:36:43;7.33;;;5.07;;
11211;SDS011;5663;50.864;12.096;2023-03-20T06:39:10;5.20;;;4.33;;
11211;SDS011;5663;50.864;12.096;2023-03-20T06:41:38;6.07;;;5.00;;
11211;SDS011;5663;50.864;12.096;2023-03-20T06:44:05;7.50;;;4.67;;
11211;SDS011;5663;50.864;12.096;2023-03-20T06:46:34;5.87;;;5.23;;
11211;SDS011;5663;50.864;12.096;2023-03-20T06:49:02;7.83;;;4.30;;
11211;SDS011;5663;50.864;12.096;2023-03-20T06:51:31;5.40;;;4.90;;
11211;SDS011;5663;50.864;12.096;2023-03-20T06:54:00;7.47;;;5.20;;
11211;SDS011;5663;50.864;12.096;2023-03-20T06:56:27;7.17;;;5.10;;
11211;SDS011;5663;50.864;12.096;2023-03-20T06:58:55;6.93;;;6.20;;
11211;SDS011;5663;50.864;12.096;2023-03-20T07:01:23;10.93;;;6.43;;
11211;SDS011;5663;50.864;12.096;2023-03-20T07:03:51;6.97;;;5.83;;
11211;SDS011;5663;50.864;12.096;2023-03-20T07:06:18;7.23;;;6.53;;
11211;SDS011;5663;50.864;12.096;2023-03-20T07:08:46;11.70;;;6.63;;
11211;SDS011;5663;50.864;12.096;2023-03-20T07:11:15;12.10;;;7.47;;
11211;SDS011;5663;50.864;12.096;2023-03-20T07:13:43;11.43;;;7.93;;
11211;SDS011;5663;50.864;12.096;2023-03-20T07:16:11;11.30;;;8.20;;
11211;SDS011;5663;50.864;12.096;2023-03-20T07:18:44;10.53;;;8.03;;
11211;SDS011;5663;50.864;12.096;2023-03-20T08:22:39;9.87;;;5.40;;
11211;SDS011;5663;50.864;12.096;2023-03-20T08:25:07;6.63;;;5.53;;
11211;SDS011;5663;50.864;12.096;2023-03-20T08:27:36;7.63;;;5.70;;
11211;SDS011;5663;50.864;12.096;2023-03-20T08:30:04;8.00;;;5.30;;
11211;SDS011;5663;50.864;12.096;2023-03-20T08:32:33;5.73;;;5.13;;
11211;SDS011;5663;50.864;12.096;2023-03-20T08:35:01;6.83;;;5.53;;
11211;SDS011;5663;50.864;12.096;2023-03-20T08:37:30;9.20;;;5.53;;
11211;SDS011;5663;50.864;12.096;2023-03-20T08:39:58;7.50;;;5.03;;
11211;SDS011;5663;50.864;12.096;2023-03-20T08:42:25;6.73;;;5.73;;
11211;SDS011;5663;50.864;12.096;2023-03-20T08:44:52;11.27;;;5.93;;
11211;SDS011;5663;50.864;12.096;2023-03-20T08:47:21;8.63;;;6.30;;
11211;SDS011;5663;50.864;12.096;2023-03-20T08:49:48;6.60;;;5.40;;
11211;SDS011;5663;50.864;12.096;2023-03-20T08:52:16;7.27;;;6.50;;
11211;SDS011;5663;50.864;12.096;2023-03-20T08:54:45;12.97;;;6.33;;
11211;SDS011;5663;50.864;12.096;2023-03-20T08:57:13;6.40;;;5.77;;
11211;SDS011;5663;50.864;12.096;2023-03-20T08:59:40;6.43;;;5.17;;
11211;SDS011;5663;50.864;12.096;2023-03-20T09:02:08;6.40;;;5.20;;
11211;SDS011;5663;50.864;12.096;2023-03-20T09:04:37;8.40;;;5.67;;
11211;SDS011;5663;50.864;12.096;2023-03-20T09:07:05;6.93;;;5.30;;
11211;SDS011;5663;50.864;12.096;2023-03-20T09:09:33;7.40;;;5.60;;
11211;SDS011;5663;50.864;12.096;2023-03-20T09:12:02;7.90;;;5.13;;
11211;SDS011;5663;50.864;12.096;2023-03-20T09:14:30;6.47;;;4.80;;
11211;SDS011;5663;50.864;12.096;2023-03-20T09:16:58;8.30;;;4.97;;
11211;SDS011;5663;50.864;12.096;2023-03-20T09:19:25;7.60;;;4.93;;
11211;SDS011;5663;50.864;12.096;2023-03-20T09:21:53;10.43;;;7.40;;
11211;SDS011;5663;50.864;12.096;2023-03-20T09:24:21;10.13;;;7.53;;
11211;SDS011;5663;50.864;12.096;2023-03-20T09:26:48;10.63;;;7.73;;
11211;SDS011;5663;50.864;12.096;2023-03-20T09:29:18;9.97;;;7.70;;
11211;SDS011;5663;50.864;12.096;2023-03-20T09:31:45;10.53;;;7.20;;
11211;SDS011;5663;50.864;12.096;2023-03-20T09:34:13;10.40;;;6.70;;
11211;SDS011;5663;50.864;12.096;2023-03-20T09:36:43;7.60;;;6.40;;
11211;SDS011;5663;50.864;12.096;2023-03-20T09:39:11;15.30;;;7.00;;
11211;SDS011;5663;50.864;12.096;2023-03-20T09:41:38;8.33;;;6.03;;
11211;SDS011;5663;50.864;12.096;2023-03-20T09:44:11;9.37;;;5.83;;
11211;SDS011;5663;50.864;12.096;2023-03-20T09:46:54;9.17;;;5.90;;
11211;SDS011;5663;50.864;12.096;2023-03-20T09:49:36;7.77;;;5.37;;
11211;SDS011;5663;50.864;12.096;2023-03-20T09:52:11;7.53;;;5.53;;
11211;SDS011;5663;50.864;12.096;2023-03-20T09:54:48;7.77;;;5.53;;
11211;SDS011;5663;50.864;12.096;2023-03-20T09:57:20;7.50;;;5.80;;
11211;SDS011;5663;50.864;12.096;2023-03-20T09:59:52;7.37;;;5.60;;
11211;SDS011;5663;50.864;12.096;2023-03-20T10:02:28;9.30;;;5.37;;
11211;SDS011;5663;50.864;12.096;2023-03-20T10:05:05;7.97;;;5.63;;
11211;SDS011;5663;50.864;12.096;2023-03-20T10:07:43;5.50;;;4.83;;
11211;SDS011;5663;50.864;12.096;2023-03-20T10:10:11;8.23;;;5.20;;
11211;SDS011;5663;50.864;12.096;2023-03-20T10:12:46;6.13;;;4.93;;
11211;SDS011;5663;50.864;12.096;2023-03-20T10:15:26;6.40;;;5.40;;
11211;SDS011;5663;50.864;12.096;2023-03-20T10:18:04;6.47;;;5.80;;
11211;SDS011;5663;50.864;12.096;2023-03-20T11:22:23;3.20;;;2.70;;
11211;SDS011;5663;50.864;12.096;2023-03-20T11:24:53;4.00;;;2.83;;
11211;SDS011;5663;50.864;12.096;2023-03-20T11:27:24;3.03;;;2.77;;
11211;SDS011;5663;50.864;12.096;2023-03-20T11:29:53;4.90;;;2.90;;
11211;SDS011;5663;50.864;12.096;2023-03-20T11:32:26;4.30;;;2.90;;
11211;SDS011;5663;50.864;12.096;2023-03-20T11:35:08;3.47;;;2.70;;
11211;SDS011;5663;50.864;12.096;2023-03-20T11:37:43;3.00;;;2.80;;
11211;SDS011;5663;50.864;12.096;2023-03-20T11:40:15;2.60;;;2.40;;
11211;SDS011;5663;50.864;12.096;2023-03-20T11:42:51;4.00;;;2.90;;
11211;SDS011;5663;50.864;12.096;2023-03-20T11:45:22;3.00;;;2.27;;
11211;SDS011;5663;50.864;12.096;2023-03-20T11:47:51;6.27;;;2.63;;
11211;SDS011;5663;50.864;12.096;2023-03-20T11:50:25;2.77;;;2.27;;
11211;SDS011;5663;50.864;12.096;2023-03-20T11:52:58;2.57;;;2.37;;
11211;SDS011;5663;50.864;12.096;2023-03-20T11:55:29;3.90;;;2.10;;
11211;SDS011;5663;50.864;12.096;2023-03-20T11:57:58;1.97;;;1.80;;
11211;SDS011;5663;50.864;12.096;2023-03-20T12:00:27;2.73;;;1.80;;
11211;SDS011;5663;50.864;12.096;2023-03-20T12:03:02;2.20;;;1.80;;
11211;SDS011;5663;50.864;12.096;2023-03-20T12:05:31;2.33;;;1.50;;
11211;SDS011;5663;50.864;12.096;2023-03-20T12:08:02;2.33;;;1.70;;
11211;SDS011;5663;50.864;12.096;2023-03-20T12:10:40;3.10;;;1.57;;
11211;SDS011;5663;50.864;12.096;2023-03-20T12:13:16;4.70;;;1.70;;
11211;SDS011;5663;50.864;12.096;2023-03-20T12:15:49;2.10;;;1.90;;
11211;SDS011;5663;50.864;12.096;2023-03-20T12:18:24;2.93;;;1.90;;
11211;SDS011;5663;50.864;12.096;2023-03-20T15:23:28;5.30;;;4.00;;
11211;SDS011;5663;50.864;12.096;2023-03-20T15:25:56;4.03;;;3.60;;
11211;SDS011;5663;50.864;12.096;2023-03-20T15:28:26;4.90;;;4.07;;
11211;SDS011;5663;50.864;12.096;2023-03-20T15:30:56;5.63;;;4.50;;
11211;SDS011;5663;50.864;12.096;2023-03-20T15:33:27;4.73;;;4.23;;
11211;SDS011;5663;50.864;12.096;2023-03-20T15:36:07;7.50;;;4.80;;
11211;SDS011;5663;50.864;12.096;2023-03-20T15:38:42;5.00;;;4.50;;
11211;SDS011;5663;50.864;12.096;2023-03-20T15:41:22;8.10;;;5.43;;
11211;SDS011;5663;50.864;12.096;2023-03-20T15:43:52;7.03;;;5.93;;
11211;SDS011;5663;50.864;12.096;2023-03-20T15:46:24;5.63;;;5.00;;
11211;SDS011;5663;50.864;12.096;2023-03-20T15:48:53;6.97;;;6.00;;
11211;SDS011;5663;50.864;12.096;2023-03-20T15:51:21;7.67;;;5.83;;
11211;SDS011;5663;50.864;12.096;2023-03-20T15:54:02;7.63;;;6.20;;
11211;SDS011;5663;50.864;12.096;2023-03-20T15:56:34;9.67;;;6.87;;
11211;SDS011;5663;50.864;12.096;2023-03-20T15:59:08;11.60;;;7.07;;
11211;SDS011;5663;50.864;12.096;2023-03-20T16:01:38;9.20;;;7.30;;
11211;SDS011;5663;50.864;12.096;2023-03-20T16:04:06;9.47;;;7.33;;
11211;SDS011;5663;50.864;12.096;2023-03-20T16:06:43;10.80;;;7.63;;
11211;SDS011;5663;50.864;12.096;2023-03-20T16:09:15;8.60;;;7.63;;
11211;SDS011;5663;50.864;12.096;2023-03-20T16:11:44;7.47;;;6.53;;
11211;SDS011;5663;50.864;12.096;2023-03-20T16:14:14;11.80;;;8.17;;
11211;SDS011;5663;50.864;12.096;2023-03-20T16:16:46;8.67;;;7.53;;
11211;SDS011;5663;50.864;12.096;2023-03-20T16:19:16;9.67;;;8.03;;
11211;SDS011;5663;50.864;12.096;2023-03-20T16:21:46;9.77;;;7.90;;
11211;SDS011;5663;50.864;12.096;2023-03-20T16:24:25;11.20;;;7.73;;
11211;SDS011;5663;50.864;12.096;2023-03-20T16:26:55;8.67;;;6.73;;
11211;SDS011;5663;50.864;12.096;2023-03-20T16:29:24;8.43;;;6.90;;
11211;SDS011;5663;50.864;12.096;2023-03-20T16:31:54;8.43;;;6.20;;
11211;SDS011;5663;50.864;12.096;2023-03-20T16:34:26;9.70;;;5.73;;
11211;SDS011;5663;50.864;12.096;2023-03-20T16:36:59;7.20;;;5.80;;
11211;SDS011;5663;50.864;12.096;2023-03-20T16:39:32;6.93;;;5.47;;
11211;SDS011;5663;50.864;12.096;2023-03-20T16:42:10;6.93;;;4.73;;
11211;SDS011;5663;50.864;12.096;2023-03-20T16:44:46;7.33;;;5.40;;
11211;SDS011;5663;50.864;12.096;2023-03-20T16:47:16;7.03;;;5.27;;
11211;SDS011;5663;50.864;12.096;2023-03-20T16:49:49;5.83;;;4.93;;
11211;SDS011;5663;50.864;12.096;2023-03-20T16:52:31;7.77;;;5.13;;
11211;SDS011;5663;50.864;12.096;2023-03-20T16:55:05;5.50;;;4.73;;
11211;SDS011;5663;50.864;12.096;2023-03-20T16:57:40;8.17;;;4.63;;
11211;SDS011;5663;50.864;12.096;2023-03-20T17:00:18;6.57;;;4.80;;
11211;SDS011;5663;50.864;12.096;2023-03-20T17:02:51;4.60;;;4.10;;
11211;SDS011;5663;50.864;12.096;2023-03-20T17:05:33;6.83;;;4.50;;
11211;SDS011;5663;50.864;12.096;2023-03-20T17:08:10;5.87;;;4.20;;
11211;SDS011;5663;50.864;12.096;2023-03-20T17:10:43;4.80;;;4.07;;
11211;SDS011;5663;50.864;12.096;2023-03-20T17:13:22;6.97;;;4.30;;
11211;SDS011;5663;50.864;12.096;2023-03-20T17:15:50;5.67;;;3.90;;
11211;SDS011;5663;50.864;12.096;2023-03-20T17:18:17;5.33;;;4.50;;
11211;SDS011;5663;50.864;12.096;2023-03-20T17:20:45;6.70;;;5.00;;
11211;SDS011;5663;50.864;12.096;2023-03-20T20:25:37;9.80;;;8.47;;
11211;SDS011;5663;50.864;12.096;2023-03-20T20:28:07;11.43;;;8.93;;
11211;SDS011;5663;50.864;12.096;2023-03-20T20:30:36;12.23;;;9.90;;
11211;SDS011;5663;50.864;12.096;2023-03-20T20:33:04;9.93;;;7.87;;
11211;SDS011;5663;50.864;12.096;2023-03-20T20:35:32;10.60;;;8.63;;
11211;SDS011;5663;50.864;12.096;2023-03-20T20:38:00;10.47;;;8.23;;
11211;SDS011;5663;50.864;12.096;2023-03-20T20:40:27;10.90;;;8.00;;
11211;SDS011;5663;50.864;12.096;2023-03-20T20:42:57;9.73;;;7.80;;
11211;SDS011;5663;50.864;12.096;2023-03-20T20:45:25;12.30;;;9.10;;
11211;SDS011;5663;50.864;12.096;2023-03-20T20:47:54;8.67;;;7.27;;
11211;SDS011;5663;50.864;12.096;2023-03-20T20:50:22;11.03;;;7.87;;
11211;SDS011;5663;50.864;12.096;2023-03-20T20:52:51;11.33;;;7.57;;
11211;SDS011;5663;50.864;12.096;2023-03-20T20:55:19;9.03;;;7.43;;
11211;SDS011;5663;50.864;12.096;2023-03-20T20:57:49;11.00;;;7.33;;
11211;SDS011;5663;50.864;12.096;2023-03-20T21:00:19;8.80;;;6.63;;
11211;SDS011;5663;50.864;12.096;2023-03-20T21:02:47;8.20;;;6.20;;
11211;SDS011;5663;50.864;12.096;2023-03-20T21:05:16;9.00;;;6.60;;
11211;SDS011;5663;50.864;12.096;2023-03-20T21:07:45;8.80;;;6.67;;
11211;SDS011;5663;50.864;12.096;2023-03-20T21:10:15;7.03;;;5.73;;
11211;SDS011;5663;50.864;12.096;2023-03-20T21:12:44;8.23;;;6.13;;
11211;SDS011;5663;50.864;12.096;2023-03-20T21:15:13;9.70;;;5.77;;
11211;SDS011;5663;50.864;12.096;2023-03-20T21:17:42;11.27;;;6.03;;
11211;SDS011;5663;50.864;12.096;2023-03-20T21:20:09;7.77;;;5.57;;
11211;SDS011;5663;50.864;12.096;2023-03-20T21:22:37;7.83;;;5.50;;
11211;SDS011;5663;50.864;12.096;2023-03-20T21:25:06;7.13;;;5.17;;
11211;SDS011;5663;50.864;12.096;2023-03-20T21:27:35;10.00;;;5.50;;
11211;SDS011;5663;50.864;12.096;2023-03-20T21:30:02;7.43;;;4.97;;
11211;SDS011;5663;50.864;12.096;2023-03-20T21:32:31;6.67;;;4.80;;
11211;SDS011;5663;50.864;12.096;2023-03-20T21:35:04;6.67;;;4.90;;
11211;SDS011;5663;50.864;12.096;2023-03-20T21:37:34;6.63;;;5.23;;
11211;SDS011;5663;50.864;12.096;2023-03-20T21:40:04;5.87;;;5.00;;
11211;SDS011;5663;50.864;12.096;2023-03-20T21:42:34;6.83;;;4.80;;
11211;SDS011;5663;50.864;12.096;2023-03-20T21:45:04;10.13;;;4.70;;
11211;SDS011;5663;50.864;12.096;2023-03-20T21:47:31;7.33;;;4.10;;
11211;SDS011;5663;50.864;12.096;2023-03-20T21:49:59;7.17;;;4.83;;
11211;SDS011;5663;50.864;12.096;2023-03-20T21:52:28;7.40;;;4.27;;
11211;SDS011;5663;50.864;12.096;2023-03-20T21:54:58;7.37;;;4.33;;
11211;SDS011;5663;50.864;12.096;2023-03-20T21:57:26;6.47;;;4.33;;
11211;SDS011;5663;50.864;12.096;2023-03-20T21:59:54;6.30;;;4.20;;
11211;SDS011;5663;50.864;12.096;2023-03-20T22:02:21;5.90;;;4.20;;
11211;SDS011;5663;50.864;12.096;2023-03-20T22:04:49;6.40;;;4.00;;
11211;SDS011;5663;50.864;12.096;2023-03-20T22:07:19;4.60;;;3.53;;
11211;SDS011;5663;50.864;12.096;2023-03-20T22:09:48;7.87;;;3.83;;
11211;SDS011;5663;50.864;12.096;2023-03-20T22:12:16;5.40;;;3.77;;
11211;SDS011;5663;50.864;12.096;2023-03-20T22:14:43;5.00;;;3.63;;
11211;SDS011;5663;50.864;12.096;2023-03-20T22:17:11;5.00;;;3.50;;
11211;SDS011;5663;50.864;12.096;2023-03-20T22:19:38;5.03;;;3.30;;
11211;SDS011;5663;50.864;12.096;2023-03-20T22:22:06;4.73;;;3.40;;
11211;SDS011;5663;50.864;12.096;2023-03-20T22:24:34;4.03;;;3.33;;
11211;SDS011;5663;50.864;12.096;2023-03-20T22:27:04;5.00;;;3.20;;
11211;SDS011;5663;50.864;12.096;2023-03-20T22:29:31;7.03;;;3.30;;
11211;SDS011;5663;50.864;12.096;2023-03-20T22:31:59;5.27;;;3.27;;
11211;SDS011;5663;50.864;12.096;2023-03-20T22:34:27;3.13;;;2.70;;
11211;SDS011;5663;50.864;12.096;2023-03-20T22:36:55;3.70;;;2.80;;
11211;SDS011;5663;50.864;12.096;2023-03-20T22:39:22;3.93;;;2.60;;
11211;SDS011;5663;50.864;12.096;2023-03-20T22:41:50;5.70;;;2.50;;
11211;SDS011;5663;50.864;12.096;2023-03-20T22:44:19;4.50;;;2.87;;
11211;SDS011;5663;50.864;12.096;2023-03-20T22:46:46;6.47;;;2.43;;
11211;SDS011;5663;50.864;12.096;2023-03-20T22:49:14;3.87;;;2.37;;
11211;SDS011;5663;50.864;12.096;2023-03-20T22:51:41;3.50;;;2.30;;
11211;SDS011;5663;50.864;12.096;2023-03-20T22:54:09;4.27;;;2.30;;
11211;SDS011;5663;50.864;12.096;2023-03-20T22:56:36;4.80;;;2.20;;
11211;SDS011;5663;50.864;12.096;2023-03-20T22:59:03;7.13;;;2.67;;
11211;SDS011;5663;50.864;12.096;2023-03-20T23:01:33;2.23;;;1.97;;
11211;SDS011;5663;50.864;12.096;2023-03-20T23:04:00;3.97;;;2.37;;
11211;SDS011;5663;50.864;12.096;2023-03-20T23:06:28;3.90;;;2.40;;
11211;SDS011;5663;50.864;12.096;2023-03-20T23:08:56;3.63;;;2.30;;
11211;SDS011;5663;50.864;12.096;2023-03-20T23:11:24;3.37;;;2.07;;
11211;SDS011;5663;50.864;12.096;2023-03-20T23:13:53;4.87;;;2.00;;
11211;SDS011;5663;50.864;12.096;2023-03-20T23:16:20;2.80;;;1.90;;
11211;SDS011;5663;50.864;12.096;2023-03-20T23:18:49;3.27;;;2.10;;
11211;SDS011;5663;50.864;12.096;2023-03-20T23:21:17;4.67;;;2.23;;
11211;SDS011;5663;50.864;12.096;2023-03-20T23:23:45;5.37;;;2.30;;
11211;SDS011;5663;50.864;12.096;2023-03-20T23:26:13;2.13;;;1.90;;
11211;SDS011;5663;50.864;12.096;2023-03-20T23:28:43;2.10;;;1.90;;
11211;SDS011;5663;50.864;12.096;2023-03-20T23:31:12;3.07;;;2.13;;
11211;SDS011;5663;50.864;12.096;2023-03-20T23:33:42;2.23;;;2.03;;
11211;SDS011;5663;50.864;12.096;2023-03-20T23:36:14;2.87;;;2.20;;
11211;SDS011;5663;50.864;12.096;2023-03-20T23:38:42;4.93;;;2.00;;
11211;SDS011;5663;50.864;12.096;2023-03-20T23:41:09;3.00;;;2.03;;
11211;SDS011;5663;50.864;12.096;2023-03-20T23:43:37;3.33;;;1.90;;
11211;SDS011;5663;50.864;12.096;2023-03-20T23:46:06;3.40;;;2.07;;
11211;SDS011;5663;50.864;12.096;2023-03-20T23:48:35;2.53;;;2.10;;
11211;SDS011;5663;50.864;12.096;2023-03-20T23:51:04;3.40;;;2.20;;
11211;SDS011;5663;50.864;12.096;2023-03-20T23:53:34;8.60;;;2.50;;
11211;SDS011;5663;50.864;12.096;2023-03-20T23:56:01;4.30;;;2.90;;
11211;SDS011;5663;50.864;12.096;2023-03-20T23:58:29;3.63;;;2.63;;
